Terminal Aerodrome Forecast
Issued by NWS Mt. Holly, NJ

Home | Current Version | Previous Version | Text Only | Print | Product List | Glossary On
Versions: 1 2 3 4 5 6 7 8 9 10 11 12 13 14 15 16 17 18 19 20 21
837
FTUS41 KPHI 291139
TAFILG
TAF
KILG 291139Z 2912/3012 01010KT 4SM -SHRA BR OVC035
     FM291300 36010G18KT P6SM BKN025
     FM291500 36010G18KT P6SM BKN045
     FM292200 VRB03KT P6SM SCT045
     FM300700 VRB03KT 4SM BR BKN100=

USA.gov is the U.S. government's official web portal to all federal, state and local government web resources and services.